createdAt,value
2018-04-29T00:00:04.024Z,4.97
2018-04-29T00:04:58.429Z,4.57
2018-04-29T00:09:52.815Z,5.07
2018-04-29T00:14:47.551Z,5.63
2018-04-29T00:19:43.069Z,4.50
2018-04-29T00:24:37.424Z,5.07
2018-04-29T00:29:31.952Z,5.90
2018-04-29T00:34:27.094Z,7.73
2018-04-29T00:39:21.465Z,7.33
2018-04-29T00:44:16.592Z,6.40
2018-04-29T00:49:11.743Z,5.63
2018-04-29T00:54:06.154Z,4.87
2018-04-29T00:59:00.534Z,5.80
2018-04-29T01:03:55.068Z,8.80
2018-04-29T01:08:49.416Z,6.70
2018-04-29T01:13:43.770Z,6.60
2018-04-29T01:18:38.094Z,3.57
2018-04-29T01:23:32.486Z,5.57
2018-04-29T01:28:26.834Z,6.63
2018-04-29T01:33:21.946Z,6.57
2018-04-29T01:38:16.430Z,6.40
2018-04-29T01:43:10.772Z,5.50
2018-04-29T01:48:06.059Z,4.60
2018-04-29T01:53:00.393Z,6.00
2018-04-29T01:57:55.512Z,6.10
2018-04-29T02:02:50.641Z,5.37
2018-04-29T02:07:46.063Z,8.80
2018-04-29T02:12:41.403Z,5.40
2018-04-29T02:17:35.791Z,5.23
2018-04-29T02:22:30.961Z,6.70
2018-04-29T02:27:25.307Z,5.67
2018-04-29T02:32:20.507Z,4.47
2018-04-29T02:37:15.286Z,6.13
2018-04-29T02:42:09.781Z,5.73
2018-04-29T02:47:04.214Z,5.97
2018-04-29T02:51:58.698Z,5.37
2018-04-29T02:56:53.200Z,6.70
2018-04-29T03:01:47.632Z,6.83
2018-04-29T03:06:41.761Z,9.30
2018-04-29T03:11:36.871Z,7.10
2018-04-29T03:16:31.234Z,4.60
2018-04-29T03:21:25.578Z,4.40
2018-04-29T03:26:19.684Z,7.80
2018-04-29T03:31:15.135Z,6.87
2018-04-29T03:36:09.499Z,4.80
2018-04-29T03:41:03.882Z,6.13
2018-04-29T03:45:58.342Z,5.43
2018-04-29T03:50:53.635Z,6.20
2018-04-29T03:55:47.985Z,6.13
2018-04-29T04:00:59.404Z,6.27
2018-04-29T04:05:53.731Z,7.10
2018-04-29T04:10:48.096Z,6.53
2018-04-29T04:15:42.430Z,5.83
2018-04-29T04:20:36.774Z,5.80
2018-04-29T04:25:31.116Z,6.50
2018-04-29T04:30:25.468Z,6.10
2018-04-29T04:35:20.585Z,6.17
2018-04-29T04:40:15.708Z,6.83
2018-04-29T04:45:10.458Z,6.43
2018-04-29T04:50:04.879Z,5.30
2018-04-29T04:54:59.259Z,5.43
2018-04-29T04:59:53.618Z,5.90
2018-04-29T05:04:48.739Z,8.43
2018-04-29T05:09:43.855Z,4.27
2018-04-29T05:14:39.030Z,6.37
2018-04-29T05:19:33.372Z,7.00
2018-04-29T05:24:27.484Z,6.13
2018-04-29T05:29:22.615Z,5.23
2018-04-29T05:34:17.078Z,7.07
2018-04-29T05:39:11.451Z,4.87
2018-04-29T05:44:05.923Z,9.60
2018-04-29T05:49:01.182Z,7.87
2018-04-29T05:53:55.702Z,6.43
2018-04-29T05:58:50.239Z,9.57
2018-04-29T06:03:44.915Z,6.57
2018-04-29T06:08:39.322Z,9.03
2018-04-29T06:13:34.568Z,7.97
2018-04-29T06:18:28.732Z,8.30
2018-04-29T06:23:23.600Z,6.60
2018-04-29T06:28:19.684Z,9.17
2018-04-29T06:33:15.053Z,7.00
2018-04-29T06:38:09.524Z,9.33
2018-04-29T06:43:04.050Z,7.57
2018-04-29T06:47:58.462Z,8.93
2018-04-29T06:52:53.626Z,7.43
2018-04-29T06:57:48.014Z,10.83
2018-04-29T07:02:43.146Z,7.23
2018-04-29T07:07:38.474Z,8.10
2018-04-29T07:12:32.867Z,6.20
2018-04-29T07:17:27.231Z,6.67
2018-04-29T07:22:21.712Z,8.50
2018-04-29T07:27:16.289Z,7.43
2018-04-29T07:32:10.878Z,6.53
2018-04-29T07:37:05.762Z,5.73
2018-04-29T07:42:00.132Z,10.60
2018-04-29T07:46:54.498Z,7.23
2018-04-29T07:51:49.658Z,7.33
2018-04-29T07:56:44.054Z,7.60
2018-04-29T08:01:38.464Z,5.70
2018-04-29T08:06:32.832Z,5.97
2018-04-29T08:11:27.987Z,7.17
2018-04-29T08:16:22.356Z,6.20
2018-04-29T08:21:17.550Z,7.20
2018-04-29T08:26:11.938Z,10.30
2018-04-29T08:31:06.290Z,8.10
2018-04-29T08:36:01.438Z,6.77
2018-04-29T08:40:55.858Z,7.00
2018-04-29T08:45:51.150Z,5.97
2018-04-29T08:50:45.604Z,4.97
2018-04-29T08:55:39.951Z,7.50
2018-04-29T09:00:34.316Z,6.97
2018-04-29T09:05:28.719Z,6.70
2018-04-29T09:10:23.135Z,8.20
2018-04-29T09:15:18.465Z,5.57
2018-04-29T09:20:13.592Z,5.77
2018-04-29T09:25:08.817Z,4.33
2018-04-29T09:30:03.970Z,5.13
2018-04-29T09:34:59.410Z,5.27
2018-04-29T09:39:53.851Z,5.63
2018-04-29T09:44:48.815Z,4.33
2018-04-29T09:49:43.166Z,3.63
2018-04-29T09:54:37.607Z,5.23
2018-04-29T09:59:31.988Z,4.87
2018-04-29T10:04:27.127Z,3.97
2018-04-29T10:09:21.471Z,5.00
2018-04-29T10:14:15.990Z,7.50
2018-04-29T10:19:11.484Z,4.10
2018-04-29T10:24:06.090Z,5.03
2018-04-29T10:29:00.372Z,5.60
2018-04-29T10:33:54.562Z,4.77
2018-04-29T10:38:48.994Z,4.37
2018-04-29T10:43:43.514Z,6.50
2018-04-29T10:48:37.978Z,5.50
2018-04-29T10:53:32.548Z,8.17
2018-04-29T10:58:27.705Z,6.73
2018-04-29T11:03:23.566Z,4.57
2018-04-29T11:08:18.654Z,5.53
2018-04-29T11:13:14.119Z,5.47
2018-04-29T11:18:08.238Z,7.53
2018-04-29T11:23:02.922Z,5.30
2018-04-29T11:27:57.374Z,6.87
2018-04-29T11:32:51.732Z,9.53
2018-04-29T11:37:46.286Z,10.03
2018-04-29T11:42:40.624Z,7.67
2018-04-29T11:47:35.224Z,7.03
2018-04-29T11:52:29.631Z,6.33
2018-04-29T11:57:24.067Z,7.13
2018-04-29T12:02:18.759Z,7.23
2018-04-29T12:07:13.343Z,6.97
2018-04-29T12:12:08.756Z,4.70
2018-04-29T12:17:03.414Z,6.80
2018-04-29T12:21:57.786Z,5.77
2018-04-29T12:26:52.189Z,4.90
2018-04-29T12:31:46.530Z,8.03
2018-04-29T12:36:40.901Z,6.70
2018-04-29T12:41:35.464Z,5.23
2018-04-29T12:46:30.008Z,4.83
2018-04-29T12:51:24.392Z,5.83
2018-04-29T12:56:19.512Z,4.40
2018-04-29T13:01:14.691Z,5.90
2018-04-29T13:06:09.153Z,5.63
2018-04-29T13:11:03.793Z,6.03
2018-04-29T13:15:58.150Z,5.90
2018-04-29T13:20:52.746Z,5.37
2018-04-29T13:25:47.162Z,5.80
2018-04-29T13:30:41.700Z,4.43
2018-04-29T13:35:35.903Z,5.40
2018-04-29T13:40:30.665Z,5.43
2018-04-29T13:45:25.064Z,8.40
2018-04-29T13:50:19.599Z,5.10
2018-04-29T13:55:14.488Z,6.70
2018-04-29T14:00:08.885Z,5.87
2018-04-29T14:05:03.587Z,4.43
2018-04-29T14:09:58.305Z,4.60
2018-04-29T14:14:52.692Z,7.40
2018-04-29T14:19:47.120Z,8.50
2018-04-29T14:24:41.823Z,5.63
2018-04-29T14:29:36.341Z,5.33
2018-04-29T14:34:31.591Z,7.47
2018-04-29T14:39:26.854Z,7.00
2018-04-29T14:44:21.294Z,6.30
2018-04-29T14:49:15.855Z,6.03
2018-04-29T14:54:10.032Z,7.37
2018-04-29T14:59:05.179Z,4.93
2018-04-29T15:03:59.437Z,6.90
2018-04-29T15:08:54.780Z,6.37
2018-04-29T15:13:49.258Z,8.47
2018-04-29T15:18:56.384Z,5.87
2018-04-29T15:23:50.760Z,9.13
2018-04-29T15:28:45.232Z,8.17
2018-04-29T15:33:39.655Z,6.93
2018-04-29T15:38:34.067Z,6.47
2018-04-29T15:43:28.446Z,8.97
2018-04-29T15:48:22.832Z,6.33
2018-04-29T15:53:17.419Z,10.23
2018-04-29T15:58:12.428Z,6.47
2018-04-29T16:03:06.808Z,7.03
2018-04-29T16:08:01.368Z,9.10
2018-04-29T16:12:56.117Z,8.93
2018-04-29T16:17:50.243Z,8.07
2018-04-29T16:22:45.470Z,10.13
2018-04-29T16:27:40.151Z,7.00
2018-04-29T16:32:34.920Z,8.43
2018-04-29T16:37:29.368Z,7.63
2018-04-29T16:42:24.244Z,9.67
2018-04-29T16:47:18.623Z,6.43
2018-04-29T16:52:13.002Z,8.00
2018-04-29T16:57:08.493Z,7.43
2018-04-29T17:02:03.404Z,5.50
2018-04-29T17:06:57.819Z,10.67
2018-04-29T17:11:52.193Z,6.60
2018-04-29T17:16:46.556Z,11.50
2018-04-29T17:21:41.033Z,4.70
2018-04-29T17:26:35.415Z,6.67
2018-04-29T17:31:29.789Z,7.70
2018-04-29T17:36:24.157Z,5.97
2018-04-29T17:41:18.528Z,6.53
2018-04-29T17:46:15.397Z,4.87
2018-04-29T17:51:09.967Z,6.50
2018-04-29T17:56:04.465Z,8.00
2018-04-29T18:00:59.160Z,7.07
2018-04-29T18:05:53.634Z,6.87
2018-04-29T18:10:48.089Z,7.87
2018-04-29T18:15:42.547Z,7.07
2018-04-29T18:20:36.974Z,9.07
2018-04-29T18:25:32.481Z,9.13
2018-04-29T18:30:26.832Z,9.30
2018-04-29T18:35:21.285Z,6.93
2018-04-29T18:40:15.556Z,9.27
2018-04-29T18:45:10.065Z,13.17
2018-04-29T18:50:04.266Z,9.10
2018-04-29T18:54:58.658Z,7.67
2018-04-29T18:59:53.218Z,9.87
2018-04-29T19:04:47.783Z,9.67
2018-04-29T19:09:42.384Z,12.23
2018-04-29T19:14:36.864Z,10.87
2018-04-29T19:19:31.234Z,10.40
2018-04-29T19:24:26.862Z,7.43
2018-04-29T19:29:22.285Z,5.93
2018-04-29T19:34:16.758Z,7.27
2018-04-29T19:39:11.303Z,5.67
2018-04-29T19:44:06.468Z,10.17
2018-04-29T19:49:00.850Z,6.53
2018-04-29T19:53:55.316Z,6.97
2018-04-29T19:58:49.687Z,6.80
2018-04-29T20:03:44.355Z,5.77
2018-04-29T20:08:39.486Z,6.33
2018-04-29T20:13:34.392Z,11.43
2018-04-29T20:18:29.570Z,7.50
2018-04-29T20:23:24.434Z,5.60
2018-04-29T20:28:19.883Z,9.00
2018-04-29T20:33:14.301Z,4.73
2018-04-29T20:38:08.710Z,6.27
2018-04-29T20:43:03.265Z,5.53
2018-04-29T20:47:58.382Z,6.57
2018-04-29T20:52:52.756Z,6.50
2018-04-29T20:57:47.046Z,8.97
2018-04-29T21:02:41.478Z,9.67
2018-04-29T21:07:35.686Z,8.00
2018-04-29T21:12:30.124Z,12.00
2018-04-29T21:17:25.607Z,7.57
2018-04-29T21:22:20.114Z,8.10
2018-04-29T21:27:14.480Z,10.60
2018-04-29T21:32:08.842Z,7.67
2018-04-29T21:37:03.987Z,6.27
2018-04-29T21:41:58.422Z,10.80
2018-04-29T21:46:52.827Z,9.37
2018-04-29T21:51:47.526Z,8.57
2018-04-29T21:56:41.960Z,11.77
2018-04-29T22:01:37.188Z,8.07
2018-04-29T22:06:31.800Z,10.40
2018-04-29T22:11:26.285Z,11.80
2018-04-29T22:16:20.743Z,13.33
2018-04-29T22:21:15.169Z,11.80
2018-04-29T22:26:10.220Z,17.17
2018-04-29T22:31:04.602Z,22.30
2018-04-29T22:35:58.988Z,24.03
2018-04-29T22:40:53.408Z,25.13
2018-04-29T22:45:47.770Z,23.20
2018-04-29T22:50:42.266Z,23.70
2018-04-29T22:55:37.399Z,15.57
2018-04-29T23:00:31.864Z,13.17
2018-04-29T23:05:26.213Z,7.60
2018-04-29T23:10:20.561Z,6.30
2018-04-29T23:15:14.938Z,7.90
2018-04-29T23:20:09.304Z,5.50
2018-04-29T23:25:04.405Z,5.90
2018-04-29T23:29:59.620Z,4.60
2018-04-29T23:34:54.032Z,4.07
2018-04-29T23:39:49.160Z,4.97
2018-04-29T23:44:44.260Z,4.03
2018-04-29T23:49:38.740Z,4.00
2018-04-29T23:54:33.154Z,5.93
2018-04-29T23:59:27.884Z,4.10
